Time;durP1;ratioP1;P1;durP2;ratioP2;P2;SDS_P1;SDS_P2;PMS_P1;PMS_P2;Temp;Humidity;BMP_temperature;BMP_pressure;BME280_temperature;BME280_humidity;BME280_pressure;Samples;Min_cycle;Max_cycle;Signal;HPM_P1;HPM_P2
2021/03/09 00:09:27;;;;;;;42.4;25.2;;;;;;;-5.76;93.85352;99190.56;;;;
2021/03/09 00:19:24;;;;;;;36.4;24.6;;;;;;;-5.83;93.6416;99196.77;;;;
2021/03/09 00:29:21;;;;;;;31.3;19.8;;;;;;;-5.84;94.04102;99195.95;;;;
2021/03/09 00:39:18;;;;;;;35.7;18.4;;;;;;;-5.87;94.04395;99191.12;;;;
2021/03/09 00:49:14;;;;;;;35.1;21.4;;;;;;;-5.9;94.60742;99188.06;;;;
2021/03/09 00:59:11;;;;;;;30.7;18.8;;;;;;;-5.94;94.94727;99187.62;;;;
2021/03/09 01:09:08;;;;;;;33.9;21.9;;;;;;;-5.95;95.06055;99187.8;;;;
2021/03/09 01:19:05;;;;;;;28.9;19.5;;;;;;;-6.08;94.75098;99182.42;;;;
2021/03/09 01:29:01;;;;;;;36.7;19;;;;;;;-6.18;94.82617;99172.23;;;;
2021/03/09 01:38:58;;;;;;;37.7;21.2;;;;;;;-6.3;95.59863;99166.66;;;;
2021/03/09 01:48:55;;;;;;;31;20.7;;;;;;;-6.38;95.67676;99158.89;;;;
2021/03/09 01:58:52;;;;;;;29.5;18.2;;;;;;;-6.44;95.88867;99166.69;;;;
2021/03/09 02:08:50;;;;;;;36.3;22.4;;;;;;;-6.56;97.07813;99162.94;;;;
2021/03/09 02:18:45;;;;;;;25.4;18.3;;;;;;;-6.61;96.46484;99160.86;;;;
2021/03/09 02:28:42;;;;;;;31.3;19.8;;;;;;;-6.67;96.91309;99158.98;;;;
2021/03/09 02:38:39;;;;;;;30.4;15.8;;;;;;;-6.71;97.31641;99155.91;;;;
2021/03/09 02:48:36;;;;;;;26.8;15.2;;;;;;;-6.71;97.53125;99166.39;;;;
2021/03/09 02:58:32;;;;;;;29.9;18.2;;;;;;;-6.76;97.11914;99152.19;;;;
2021/03/09 03:08:29;;;;;;;32.3;20.4;;;;;;;-6.68;98.50391;99157.34;;;;
2021/03/09 03:18:26;;;;;;;34.5;17.5;;;;;;;-6.79;97.87695;99169.1;;;;
2021/03/09 03:28:22;;;;;;;30.7;19.7;;;;;;;-6.94;98.09961;99159.64;;;;
2021/03/09 03:38:19;;;;;;;32.9;17.3;;;;;;;-7.12;100;99159.19;;;;
2021/03/09 03:48:16;;;;;;;26.4;16.5;;;;;;;-7.07;99.46777;99175.98;;;;
2021/03/09 03:58:18;;;;;;;26.5;14.8;;;;;;;-7.16;99.03613;99166.59;;;;
2021/03/09 04:08:09;;;;;;;34.7;20.1;;;;;;;-7.41;99.66699;99180.91;;;;
2021/03/09 04:18:06;;;;;;;28.2;15.3;;;;;;;-7.43;100;99180.29;;;;
2021/03/09 04:28:02;;;;;;;29.6;17.5;;;;;;;-7.43;99.65039;99181.11;;;;
2021/03/09 04:37:59;;;;;;;23.9;17.4;;;;;;;-7.6;100;99189.28;;;;
2021/03/09 04:47:55;;;;;;;31;21.5;;;;;;;-7.65;100;99174.92;;;;
2021/03/09 04:57:52;;;;;;;35.7;22.1;;;;;;;-7.55;100;99181.7;;;;
2021/03/09 05:07:49;;;;;;;30.6;19.2;;;;;;;-7.48;100;99178.2;;;;
2021/03/09 05:17:45;;;;;;;31.6;18.2;;;;;;;-7.33;100;99178.23;;;;
2021/03/09 05:27:42;;;;;;;25.9;14;;;;;;;-7.15;100;99184.72;;;;
2021/03/09 05:37:38;;;;;;;27.8;19.2;;;;;;;-6.85;100;99187.36;;;;
2021/03/09 05:47:35;;;;;;;27.4;17.6;;;;;;;-6.38;99.87793;99179.05;;;;
2021/03/09 05:57:32;;;;;;;30.7;23.2;;;;;;;-5.97;99.32715;99195.05;;;;
2021/03/09 06:07:29;;;;;;;48.7;29.5;;;;;;;-5.48;99.64941;99201.1;;;;
2021/03/09 06:17:25;;;;;;;39.1;30.1;;;;;;;-4.72;99.67676;99197.56;;;;
2021/03/09 06:27:25;;;;;;;27.1;18.4;;;;;;;-3.82;99.20703;99210.46;;;;
2021/03/09 06:37:19;;;;;;;24.1;16.6;;;;;;;-3.2;96.18164;99228.55;;;;
2021/03/09 06:47:16;;;;;;;22.6;13.4;;;;;;;-2.9;91.7793;99236;;;;
2021/03/09 06:57:14;;;;;;;22.2;13.5;;;;;;;-2.82;90.40234;99248.98;;;;
2021/03/09 07:07:11;;;;;;;20;14.7;;;;;;;-2.54;89.45898;99249.55;;;;
2021/03/09 07:17:12;;;;;;;31.1;24.3;;;;;;;-2.42;89.2998;99250.52;;;;
2021/03/09 07:27:05;;;;;;;19.3;14.8;;;;;;;-2.31;86.28906;99251.7;;;;
2021/03/09 07:37:02;;;;;;;38;20.1;;;;;;;-2.34;86.73145;99250.3;;;;
2021/03/09 07:47:00;;;;;;;26.2;20.6;;;;;;;-2.26;87.25;99257.18;;;;
2021/03/09 07:56:57;;;;;;;25.8;21.4;;;;;;;-2.11;86.01465;99252.43;;;;
2021/03/09 08:06:54;;;;;;;20.9;16.3;;;;;;;-1.61;84.78125;99248.13;;;;
2021/03/09 08:16:51;;;;;;;30.7;20.3;;;;;;;-1.37;83.64746;99247.35;;;;
2021/03/09 08:26:49;;;;;;;37.5;25;;;;;;;-1.19;80.64648;99239.48;;;;
2021/03/09 08:36:46;;;;;;;43.1;29.7;;;;;;;-0.82;76.7207;99232.44;;;;
2021/03/09 08:46:43;;;;;;;50.4;36;;;;;;;-0.4;77.22559;99214.9;;;;
2021/03/09 08:56:41;;;;;;;48.7;34.8;;;;;;;-0.06;76.38281;99216.11;;;;
2021/03/09 09:06:38;;;;;;;42.6;31.5;;;;;;;0.21;74.20508;99212.07;;;;
2021/03/09 09:16:36;;;;;;;37.3;28.4;;;;;;;0.66;72.19922;99209.77;;;;
2021/03/09 09:26:33;;;;;;;40.1;31.1;;;;;;;0.87;69.69434;99209.22;;;;
2021/03/09 09:36:31;;;;;;;19.2;13.1;;;;;;;1.12;67.12207;99213.5;;;;
2021/03/09 09:46:29;;;;;;;15.3;8.8;;;;;;;1.26;64.24219;99197.12;;;;
2021/03/09 09:56:27;;;;;;;10.8;9.3;;;;;;;1.75;63.22949;99201.08;;;;
2021/03/09 10:06:24;;;;;;;12.1;9.2;;;;;;;1.69;61.16504;99193.24;;;;
2021/03/09 10:16:22;;;;;;;14.7;9.8;;;;;;;1.9;63.35156;99185.45;;;;
2021/03/09 10:26:20;;;;;;;12.2;7.6;;;;;;;1.74;58.54004;99182.7;;;;
2021/03/09 10:36:18;;;;;;;17.6;10.3;;;;;;;1.83;60.83105;99173.34;;;;
2021/03/09 10:46:16;;;;;;;14.6;9.6;;;;;;;2.48;57.96289;99165.73;;;;
2021/03/09 10:56:14;;;;;;;14.8;10.7;;;;;;;2.85;54.70215;99150.89;;;;
2021/03/09 11:06:12;;;;;;;10;6.3;;;;;;;3.2;55.89648;99147.12;;;;
2021/03/09 11:16:10;;;;;;;9.3;7;;;;;;;2.9;54.8877;99153.64;;;;
2021/03/09 11:26:10;;;;;;;11.9;8.6;;;;;;;2.68;54.5791;99138.64;;;;
2021/03/09 11:36:05;;;;;;;23.3;10.2;;;;;;;2.92;54.01953;99127.56;;;;
2021/03/09 11:46:03;;;;;;;12.7;9.5;;;;;;;3.25;55.15527;99112.58;;;;
2021/03/09 11:56:01;;;;;;;12.4;8.8;;;;;;;3.56;52.80273;99098.57;;;;
2021/03/09 12:05:59;;;;;;;12.5;8.3;;;;;;;3.47;51.79785;99087.53;;;;
2021/03/09 12:15:57;;;;;;;18.9;9.1;;;;;;;3.91;50.75391;99082.95;;;;
2021/03/09 12:25:55;;;;;;;14.9;8.9;;;;;;;3.71;49.7334;99064.09;;;;
2021/03/09 12:35:53;;;;;;;15;8.6;;;;;;;2.95;48.78516;99049.09;;;;
2021/03/09 12:45:51;;;;;;;13.9;7.8;;;;;;;3;49.16016;99044.63;;;;
2021/03/09 12:55:49;;;;;;;19.1;11.6;;;;;;;2.48;53.11523;99043.36;;;;
2021/03/09 13:05:47;;;;;;;18;11.2;;;;;;;2.23;53.85352;99048.28;;;;
2021/03/09 13:15:45;;;;;;;14.5;8.9;;;;;;;2.21;56.52344;99040.57;;;;
2021/03/09 13:25:43;;;;;;;16.7;10;;;;;;;2.14;53.04004;99039.11;;;;
2021/03/09 13:35:41;;;;;;;10.9;8.8;;;;;;;2.13;54.13086;99035.64;;;;
2021/03/09 13:45:39;;;;;;;14.9;11.1;;;;;;;2.02;53.14844;99020.58;;;;
2021/03/09 13:55:36;;;;;;;12;8.6;;;;;;;1.97;54.40039;99018.66;;;;
2021/03/09 14:05:34;;;;;;;11.6;10.4;;;;;;;2.15;55.60449;99022.94;;;;
2021/03/09 14:15:32;;;;;;;21;14.1;;;;;;;2.41;55.05859;99018.79;;;;
2021/03/09 14:25:30;;;;;;;17.8;11.1;;;;;;;2.22;55.84668;99018.23;;;;
2021/03/09 14:35:28;;;;;;;14.4;9.9;;;;;;;1.24;59.36035;99013.38;;;;
2021/03/09 14:45:25;;;;;;;15.4;10.1;;;;;;;1.65;58.67383;99004.28;;;;
2021/03/09 14:55:23;;;;;;;21.6;14;;;;;;;1.56;57.89355;98996.95;;;;
2021/03/09 15:05:21;;;;;;;24.8;21.5;;;;;;;1.35;58.62012;98985.16;;;;
2021/03/09 15:15:19;;;;;;;18.3;11.4;;;;;;;0.94;59.03027;98978.25;;;;
2021/03/09 15:25:16;;;;;;;15.3;12;;;;;;;0.64;60.63867;98980.3;;;;
2021/03/09 15:35:14;;;;;;;30;21.5;;;;;;;0.44;60.54395;98975.38;;;;
2021/03/09 15:45:13;;;;;;;23.2;14.5;;;;;;;0.27;61.81543;98977.13;;;;
2021/03/09 15:55:13;;;;;;;15.8;12.5;;;;;;;-0.01;61.98633;98965.38;;;;
2021/03/09 16:05:06;;;;;;;15.7;9.7;;;;;;;-0.15;62.28418;98971.12;;;;
2021/03/09 16:15:04;;;;;;;12.9;11.5;;;;;;;-0.44;63.71094;98975.44;;;;
2021/03/09 16:25:03;;;;;;;13.9;12.4;;;;;;;-0.71;64.18848;98985.61;;;;
2021/03/09 16:34:59;;;;;;;17.7;12.2;;;;;;;-1.02;65.77344;98981.34;;;;
2021/03/09 16:44:56;;;;;;;55.4;37.6;;;;;;;-1.29;66.65625;98987.17;;;;
2021/03/09 16:54:53;;;;;;;25;17.1;;;;;;;-1.45;67.94043;98993.84;;;;
2021/03/09 17:04:51;;;;;;;31.7;16.9;;;;;;;-1.59;68.45703;99006.39;;;;
2021/03/09 17:14:48;;;;;;;18.5;14;;;;;;;-1.71;69.33789;99015.27;;;;
2021/03/09 17:24:45;;;;;;;35.7;24.1;;;;;;;-1.86;70.23438;99012.15;;;;
2021/03/09 17:34:43;;;;;;;35.8;22.6;;;;;;;-1.94;72.30762;99026.44;;;;
2021/03/09 17:44:40;;;;;;;34;25.4;;;;;;;-2.02;72.10742;99029.36;;;;
2021/03/09 17:54:37;;;;;;;32.6;23.7;;;;;;;-2.04;72.4668;99034.84;;;;
2021/03/09 18:04:34;;;;;;;37.4;24.7;;;;;;;-2.14;72.36035;99031.06;;;;
2021/03/09 18:14:32;;;;;;;32;26.8;;;;;;;-2.18;72.60645;99041.25;;;;
2021/03/09 18:24:29;;;;;;;44.5;30.5;;;;;;;-2.25;72.52832;99045.77;;;;
2021/03/09 18:34:26;;;;;;;46.7;30.7;;;;;;;-2.35;73.54199;99048.07;;;;
2021/03/09 18:44:23;;;;;;;35.4;24.1;;;;;;;-2.48;73.68457;99045.52;;;;
2021/03/09 18:54:20;;;;;;;37.1;26.5;;;;;;;-2.61;73.63965;99048.24;;;;
2021/03/09 19:04:18;;;;;;;48.6;26.8;;;;;;;-2.76;74.98145;99052.98;;;;
2021/03/09 19:14:15;;;;;;;42.9;29.1;;;;;;;-2.9;75.08887;99044.31;;;;
2021/03/09 19:24:12;;;;;;;39.5;23.3;;;;;;;-2.98;75.82715;99059.55;;;;
2021/03/09 19:34:11;;;;;;;28.7;19.4;;;;;;;-3.09;75.90625;99061.04;;;;
2021/03/09 19:44:06;;;;;;;37.4;24.9;;;;;;;-3.21;76.61719;99062.69;;;;
2021/03/09 19:54:03;;;;;;;34;21.8;;;;;;;-3.27;77.11914;99068.8;;;;
2021/03/09 20:04:01;;;;;;;29;22.5;;;;;;;-3.32;77.69043;99064.13;;;;
2021/03/09 20:13:59;;;;;;;42.5;28;;;;;;;-3.44;77.90723;99057.08;;;;
2021/03/09 20:23:55;;;;;;;44.8;32;;;;;;;-3.54;78.19336;99061.96;;;;
2021/03/09 20:33:52;;;;;;;53.6;30;;;;;;;-3.69;78.04688;99064.81;;;;
2021/03/09 20:43:49;;;;;;;63.4;39.5;;;;;;;-3.75;78.86328;99078.8;;;;
2021/03/09 20:53:46;;;;;;;45.8;28.3;;;;;;;-3.8;80.7832;99057.52;;;;
2021/03/09 21:03:43;;;;;;;67.9;42.6;;;;;;;-3.76;80.43164;99053.47;;;;
2021/03/09 21:13:42;;;;;;;39;30.2;;;;;;;-3.58;81.51172;99056.3;;;;
2021/03/09 21:23:37;;;;;;;62.7;34.9;;;;;;;-3.46;82.05957;99036.19;;;;
2021/03/09 21:33:35;;;;;;;56.5;40.9;;;;;;;-3.39;82.24609;99036.17;;;;
2021/03/09 21:43:32;;;;;;;57.1;37.2;;;;;;;-3.32;81.31152;99034.33;;;;
2021/03/09 21:53:29;;;;;;;232.4;171.9;;;;;;;-3.29;81.60156;99037.36;;;;
2021/03/09 22:03:26;;;;;;;85;53.8;;;;;;;-3.37;81.56445;99024.44;;;;
2021/03/09 22:13:23;;;;;;;62;47.4;;;;;;;-3.47;83.33301;99024.02;;;;
2021/03/09 22:23:21;;;;;;;67;39.2;;;;;;;-3.59;83.75488;99025.69;;;;
2021/03/09 22:33:18;;;;;;;53.3;32.9;;;;;;;-3.64;83.41699;99017.58;;;;
2021/03/09 22:43:15;;;;;;;41.6;31.6;;;;;;;-3.72;84.0332;99015.19;;;;
2021/03/09 22:53:12;;;;;;;59;36.3;;;;;;;-3.76;85.14648;99019.23;;;;
2021/03/09 23:03:11;;;;;;;51.8;30.9;;;;;;;-3.84;85.93555;98998.38;;;;
2021/03/09 23:13:08;;;;;;;43.2;29.5;;;;;;;-3.96;85.0293;99002.66;;;;
2021/03/09 23:23:03;;;;;;;45.2;31.6;;;;;;;-4.24;85.49512;99000.25;;;;
2021/03/09 23:33:00;;;;;;;50.1;33.1;;;;;;;-4.5;87.86426;99000.21;;;;
2021/03/09 23:42:57;;;;;;;48.2;31.7;;;;;;;-4.77;87.17969;98999.37;;;;
2021/03/09 23:52:54;;;;;;;48.6;30.4;;;;;;;-5.05;87.27246;99003.94;;;;
